MP03 weather

La Cabezona Airport
Guarumal, Chiriquí Province, Panama

Public forecast

Using degrees Celsius for public forecast. Weather courtesy of forecast.io.

Closest aviation weather report (METAR) to La Cabezona Airport

Closest report is Enrique Malek International Airport, 4.9 nm (9.1 km) ENE. Retrieved 2020/06/01 19:00 UTC (3 minutes ago):

MPDA 011900Z 22003KT 9000 VCSH SCT012TCU BKN080 29/24 Q1013

Closest aviation forecast (TAF) to La Cabezona Airport

Closest forecast is Enrique Malek International Airport, 4.9 nm (9.1 km) ENE. Retrieved 2020/06/01 18:57 UTC (6 minutes ago):

TAF TAF MPDA 011700Z 0118/0206 26004KT 9999 SCT016 SCT090 TEMPO 0118/0122 5000 TSRA SCT010 SCT014CB BKN090 TEMPO 0122/0124 6000 RA SCT016 SCT090 TEMPO 0202/0205 00000KT 9999 NSW SCT018 SCT090